createdAt,value
2022-08-19T00:02:12.567Z,19.84
2022-08-19T00:04:41.376Z,19.87
2022-08-19T00:07:11.522Z,19.89
2022-08-19T00:09:39.617Z,19.88
2022-08-19T00:12:07.937Z,19.85
2022-08-19T00:14:36.214Z,19.82
2022-08-19T00:17:06.090Z,19.79
2022-08-19T00:19:35.037Z,19.76
2022-08-19T00:22:03.693Z,19.74
2022-08-19T00:24:32.283Z,19.75
2022-08-19T00:27:25.582Z,19.74
2022-08-19T00:29:52.792Z,19.70
2022-08-19T00:32:22.069Z,19.67
2022-08-19T00:34:50.259Z,19.67
2022-08-19T00:37:18.426Z,19.65
2022-08-19T00:39:49.070Z,19.64
2022-08-19T00:42:18.259Z,19.65
2022-08-19T00:44:47.599Z,19.65
2022-08-19T00:47:16.076Z,19.64
2022-08-19T00:49:51.821Z,19.64
2022-08-19T00:52:30.395Z,19.63
2022-08-19T00:54:59.804Z,19.61
2022-08-19T00:57:33.810Z,19.58
2022-08-19T01:00:03.552Z,19.55
2022-08-19T01:02:33.386Z,19.52
2022-08-19T01:05:05.973Z,19.49
2022-08-19T01:07:38.206Z,19.47
2022-08-19T01:10:10.083Z,19.45
2022-08-19T01:12:39.735Z,19.41
2022-08-19T01:15:10.949Z,19.32
2022-08-19T01:17:41.374Z,19.26
2022-08-19T01:20:20.410Z,19.21
2022-08-19T01:22:55.061Z,19.20
2022-08-19T01:25:29.011Z,19.20
2022-08-19T01:27:59.114Z,19.21
2022-08-19T01:30:38.842Z,19.21
2022-08-19T01:33:07.119Z,19.22
2022-08-19T01:35:36.499Z,19.22
2022-08-19T01:38:09.409Z,19.25
2022-08-19T01:40:41.086Z,19.25
2022-08-19T01:43:09.587Z,19.23
2022-08-19T01:45:40.305Z,19.22
2022-08-19T01:48:09.242Z,19.20
2022-08-19T01:50:37.674Z,19.17
2022-08-19T01:53:10.707Z,19.15
2022-08-19T01:55:42.694Z,19.12
2022-08-19T01:58:19.860Z,19.10
2022-08-19T02:00:48.735Z,19.09
2022-08-19T02:03:17.496Z,19.09
2022-08-19T02:05:57.018Z,19.10
2022-08-19T02:08:25.186Z,19.08
2022-08-19T02:10:53.466Z,19.06
2022-08-19T02:13:26.194Z,19.05
2022-08-19T02:15:55.180Z,19.03
2022-08-19T02:18:23.377Z,19.01
2022-08-19T02:20:57.202Z,19.01
2022-08-19T02:23:25.528Z,19.00
2022-08-19T02:25:53.828Z,18.99
2022-08-19T02:28:21.998Z,19.01
2022-08-19T02:30:50.114Z,18.99
2022-08-19T02:33:18.342Z,18.99
2022-08-19T02:35:47.777Z,18.97
2022-08-19T02:38:28.166Z,18.92
2022-08-19T02:41:03.088Z,18.83
2022-08-19T02:43:37.074Z,18.78
2022-08-19T02:46:22.327Z,18.79
2022-08-19T02:48:55.134Z,18.78
2022-08-19T02:51:27.720Z,18.76
2022-08-19T02:53:55.921Z,18.76
2022-08-19T02:56:26.497Z,18.74
2022-08-19T02:58:58.211Z,18.71
2022-08-19T03:01:30.216Z,18.69
2022-08-19T03:04:00.556Z,18.70
2022-08-19T03:06:29.183Z,18.72
2022-08-19T03:09:05.037Z,18.74
2022-08-19T03:11:34.438Z,18.76
2022-08-19T03:14:05.330Z,18.78
2022-08-19T03:16:41.018Z,18.80
2022-08-19T03:19:09.546Z,18.83
2022-08-19T03:21:37.816Z,18.84
2022-08-19T03:24:09.641Z,18.83
2022-08-19T03:26:47.154Z,18.84
2022-08-19T03:29:16.316Z,18.86
2022-08-19T03:32:05.215Z,18.86
2022-08-19T03:34:35.733Z,18.86
2022-08-19T03:37:10.268Z,18.85
2022-08-19T03:39:40.641Z,18.87
2022-08-19T03:42:38.594Z,18.84
2022-08-19T03:44:59.616Z,18.74
2022-08-19T03:47:27.881Z,18.66
2022-08-19T03:49:56.119Z,18.63
2022-08-19T03:52:24.425Z,18.59
2022-08-19T03:54:52.887Z,18.57
2022-08-19T03:57:21.494Z,18.59
2022-08-19T03:59:53.631Z,18.63
2022-08-19T04:02:22.567Z,18.63
2022-08-19T04:04:55.483Z,18.64
2022-08-19T04:07:23.660Z,18.67
2022-08-19T04:10:10.641Z,18.70
2022-08-19T04:12:40.533Z,18.72
2022-08-19T04:15:09.577Z,18.74
2022-08-19T04:17:37.686Z,18.77
2022-08-19T04:20:07.045Z,18.80
2022-08-19T04:22:35.474Z,18.82
2022-08-19T04:25:04.359Z,18.85
2022-08-19T04:27:33.796Z,18.90
2022-08-19T04:30:01.972Z,18.93
2022-08-19T04:32:31.602Z,18.96
2022-08-19T04:35:01.399Z,19.01
2022-08-19T04:37:44.931Z,19.06
2022-08-19T04:40:32.164Z,19.11
2022-08-19T04:43:00.440Z,19.17
2022-08-19T04:45:29.361Z,19.22
2022-08-19T04:48:28.110Z,19.26
2022-08-19T04:51:01.196Z,19.31
2022-08-19T04:53:35.517Z,19.37
2022-08-19T04:56:15.375Z,19.44
2022-08-19T04:58:46.353Z,19.52
2022-08-19T05:01:19.124Z,19.59
2022-08-19T05:03:49.765Z,19.66
2022-08-19T05:06:20.712Z,19.72
2022-08-19T05:08:50.151Z,19.77
2022-08-19T05:11:26.671Z,19.83
2022-08-19T05:13:56.248Z,19.90
2022-08-19T05:16:27.598Z,19.95
2022-08-19T05:19:15.802Z,20.03
2022-08-19T05:22:04.162Z,20.12
2022-08-19T05:24:35.241Z,20.18
2022-08-19T05:27:06.306Z,20.22
2022-08-19T05:29:36.523Z,20.27
2022-08-19T05:32:11.749Z,20.33
2022-08-19T05:34:40.040Z,20.39
2022-08-19T05:37:09.534Z,20.45
2022-08-19T05:39:40.036Z,20.53
2022-08-19T05:42:10.712Z,20.60
2022-08-19T05:44:45.896Z,20.67
2022-08-19T05:47:16.114Z,20.75
2022-08-19T05:49:44.673Z,20.83
2022-08-19T05:52:18.572Z,20.92
2022-08-19T05:54:51.435Z,21.01
2022-08-19T05:57:20.579Z,21.10
2022-08-19T05:59:52.763Z,21.17
2022-08-19T06:02:31.913Z,21.24
2022-08-19T06:05:04.988Z,21.31
2022-08-19T06:07:33.195Z,21.38
2022-08-19T06:10:03.101Z,21.47
2022-08-19T06:12:36.117Z,21.55
2022-08-19T06:15:12.622Z,21.63
2022-08-19T06:17:42.941Z,21.73
2022-08-19T06:20:14.418Z,21.82
2022-08-19T06:22:45.966Z,21.91
2022-08-19T06:25:15.985Z,21.97
2022-08-19T06:30:35.971Z,22.10
2022-08-19T06:33:04.309Z,22.15
2022-08-19T06:35:32.710Z,22.23
2022-08-19T06:38:00.914Z,22.30
2022-08-19T06:40:31.368Z,22.37
2022-08-19T06:43:03.673Z,22.47
2022-08-19T06:45:39.819Z,22.58
2022-08-19T06:48:08.532Z,22.69
2022-08-19T06:50:39.799Z,22.80
2022-08-19T06:53:09.367Z,22.90
2022-08-19T06:55:38.662Z,23.00
2022-08-19T06:58:07.941Z,23.14
2022-08-19T07:00:37.963Z,23.25
2022-08-19T07:03:08.752Z,23.38
2022-08-19T07:05:45.732Z,23.54
2022-08-19T07:08:15.021Z,23.64
2022-08-19T07:10:47.151Z,23.70
2022-08-19T07:13:16.239Z,23.83
2022-08-19T07:15:44.393Z,23.98
2022-08-19T07:18:12.589Z,24.16
2022-08-19T07:20:42.972Z,24.32
2022-08-19T07:23:15.967Z,24.47
2022-08-19T07:25:52.953Z,24.58
2022-08-19T07:28:24.736Z,24.72
2022-08-19T07:30:53.849Z,24.89
2022-08-19T07:33:22.185Z,25.00
2022-08-19T07:35:51.014Z,25.12
2022-08-19T07:38:19.222Z,25.26
2022-08-19T07:40:47.528Z,25.40
2022-08-19T07:43:17.080Z,25.58
2022-08-19T07:45:48.116Z,25.76
2022-08-19T07:48:16.202Z,25.92
2022-08-19T07:50:44.490Z,26.04
2022-08-19T07:53:13.508Z,26.15
2022-08-19T07:55:43.830Z,26.30
2022-08-19T07:58:15.344Z,26.47
2022-08-19T08:00:45.470Z,26.66
2022-08-19T08:03:15.196Z,26.86
2022-08-19T08:06:02.319Z,27.08
2022-08-19T08:08:49.611Z,27.33
2022-08-19T08:11:21.218Z,27.56
2022-08-19T08:14:00.931Z,27.88
2022-08-19T08:16:39.550Z,28.23
2022-08-19T08:19:25.521Z,28.60
2022-08-19T08:21:58.747Z,29.02
2022-08-19T08:24:29.512Z,29.36
2022-08-19T08:27:01.619Z,29.62
2022-08-19T08:29:34.807Z,29.87
2022-08-19T08:32:13.869Z,30.22
2022-08-19T08:34:43.908Z,30.48
2022-08-19T08:37:12.086Z,30.72
2022-08-19T08:39:42.829Z,30.93
2022-08-19T08:42:17.768Z,31.10
2022-08-19T08:45:16.875Z,31.27
2022-08-19T08:47:51.107Z,31.37
2022-08-19T08:50:44.133Z,31.30
2022-08-19T08:53:17.452Z,31.59
2022-08-19T08:55:58.354Z,31.84
2022-08-19T08:58:59.042Z,31.83
2022-08-19T09:01:30.497Z,31.92
2022-08-19T09:04:02.888Z,32.14
2022-08-19T09:06:40.970Z,32.37
2022-08-19T09:09:33.503Z,32.43
2022-08-19T09:12:13.884Z,32.57
2022-08-19T09:14:58.157Z,32.69
2022-08-19T09:17:32.174Z,32.76
2022-08-19T09:20:09.063Z,32.71
2022-08-19T09:22:45.087Z,32.88
2022-08-19T09:25:17.854Z,33.08
2022-08-19T09:28:02.531Z,33.20
2022-08-19T09:30:41.152Z,33.41
2022-08-19T09:33:09.491Z,33.37
2022-08-19T09:35:50.129Z,33.50
2022-08-19T09:38:22.478Z,33.60
2022-08-19T09:40:50.994Z,33.17
2022-08-19T09:43:33.041Z,33.06
2022-08-19T09:46:03.101Z,33.22
2022-08-19T09:48:31.294Z,33.47
2022-08-19T09:51:28.776Z,33.58
2022-08-19T09:54:02.450Z,33.70
2022-08-19T09:56:34.233Z,33.89
2022-08-19T09:59:04.862Z,34.13
2022-08-19T10:01:34.096Z,34.31
2022-08-19T10:04:14.747Z,34.26
2022-08-19T10:06:53.698Z,34.16
2022-08-19T10:09:26.155Z,34.25
2022-08-19T10:11:55.211Z,34.27
2022-08-19T10:14:25.662Z,34.40
2022-08-19T10:16:54.020Z,34.59
2022-08-19T10:19:26.017Z,34.93
2022-08-19T10:21:55.714Z,35.09
2022-08-19T10:24:29.197Z,35.04
2022-08-19T10:26:59.805Z,34.69
2022-08-19T10:29:31.884Z,34.74
2022-08-19T10:32:04.481Z,34.92
2022-08-19T10:34:48.311Z,35.02
2022-08-19T10:37:23.835Z,35.17
2022-08-19T10:39:57.156Z,35.41
2022-08-19T10:42:25.527Z,35.46
2022-08-19T10:44:53.630Z,35.37
2022-08-19T10:47:25.466Z,35.31
2022-08-19T10:50:15.029Z,35.21
2022-08-19T10:52:48.918Z,35.07
2022-08-19T10:55:40.036Z,35.00
2022-08-19T10:58:15.080Z,35.13
2022-08-19T11:00:44.495Z,35.40
2022-08-19T11:03:13.199Z,35.50
2022-08-19T11:05:42.384Z,35.72
2022-08-19T11:08:23.487Z,35.74
2022-08-19T11:10:56.475Z,35.94
2022-08-19T11:13:25.762Z,36.06
2022-08-19T11:16:24.580Z,36.28
2022-08-19T11:18:55.899Z,36.33
2022-08-19T11:21:34.322Z,36.28
2022-08-19T11:24:07.101Z,36.43
2022-08-19T11:26:37.058Z,36.40
2022-08-19T11:29:12.475Z,36.45
2022-08-19T11:31:44.478Z,36.15
2022-08-19T11:34:19.396Z,36.02
2022-08-19T11:36:49.892Z,36.27
2022-08-19T11:39:21.269Z,36.50
2022-08-19T11:41:49.745Z,36.54
2022-08-19T11:44:18.816Z,36.54
2022-08-19T11:46:47.910Z,36.81
2022-08-19T11:49:19.861Z,36.88
2022-08-19T11:51:51.238Z,36.79
2022-08-19T11:54:19.502Z,36.92
2022-08-19T11:56:48.893Z,36.98
2022-08-19T11:59:17.129Z,36.96
2022-08-19T12:01:45.338Z,37.10
2022-08-19T12:04:13.566Z,37.00
2022-08-19T12:06:42.813Z,36.93
2022-08-19T12:09:11.897Z,36.92
2022-08-19T12:11:41.640Z,36.94
2022-08-19T12:14:15.235Z,37.02
2022-08-19T12:16:51.265Z,36.96
2022-08-19T12:19:22.345Z,36.73
2022-08-19T12:21:52.381Z,36.82
2022-08-19T12:24:24.290Z,37.02
2022-08-19T12:26:53.867Z,36.93
2022-08-19T12:29:26.425Z,37.01
2022-08-19T12:31:54.574Z,37.03
2022-08-19T12:34:22.879Z,36.89
2022-08-19T12:36:51.085Z,36.88
2022-08-19T12:39:19.426Z,37.02
2022-08-19T12:41:54.097Z,37.15
2022-08-19T12:44:29.606Z,37.19
2022-08-19T12:47:00.943Z,37.20
2022-08-19T12:49:54.438Z,37.16
2022-08-19T12:52:23.038Z,36.91
2022-08-19T12:54:54.672Z,36.77
2022-08-19T12:57:32.295Z,36.43
2022-08-19T13:00:12.605Z,36.47
2022-08-19T13:02:42.562Z,36.74
2022-08-19T13:05:13.054Z,36.87
2022-08-19T13:07:42.577Z,36.94
2022-08-19T13:10:13.517Z,36.61
2022-08-19T13:12:42.402Z,36.24
2022-08-19T13:15:12.278Z,36.00
2022-08-19T13:17:40.996Z,36.20
2022-08-19T13:20:11.444Z,36.25
2022-08-19T13:22:39.736Z,36.34
2022-08-19T13:25:09.038Z,36.29
2022-08-19T13:27:37.390Z,36.12
2022-08-19T13:30:28.621Z,36.10
2022-08-19T13:33:12.125Z,36.14
2022-08-19T13:35:58.247Z,36.09
2022-08-19T13:38:26.453Z,36.17
2022-08-19T13:40:56.917Z,36.24
2022-08-19T13:43:27.654Z,36.05
2022-08-19T13:45:58.855Z,36.04
2022-08-19T13:48:28.085Z,36.08
2022-08-19T13:50:59.652Z,36.10
2022-08-19T13:53:27.940Z,36.07
2022-08-19T13:55:56.316Z,36.05
2022-08-19T13:58:24.496Z,35.93
2022-08-19T14:00:52.781Z,35.68
2022-08-19T14:03:21.119Z,35.53
2022-08-19T14:05:49.301Z,35.28
2022-08-19T14:08:18.423Z,34.82
2022-08-19T14:10:47.290Z,34.23
2022-08-19T14:13:20.055Z,34.02
2022-08-19T14:15:48.534Z,33.58
2022-08-19T14:18:18.791Z,33.41
2022-08-19T14:20:47.001Z,33.66
2022-08-19T14:23:15.788Z,33.95
2022-08-19T14:25:44.637Z,33.75
2022-08-19T14:28:12.761Z,33.60
2022-08-19T14:30:40.955Z,33.30
2022-08-19T14:33:09.586Z,32.76
2022-08-19T14:35:38.767Z,32.35
2022-08-19T14:38:15.590Z,32.04
2022-08-19T14:40:44.008Z,32.02
2022-08-19T14:43:12.345Z,32.21
2022-08-19T14:45:41.181Z,32.05
2022-08-19T14:48:17.819Z,31.75
2022-08-19T14:50:48.029Z,31.57
2022-08-19T14:53:18.122Z,31.43
2022-08-19T14:55:47.581Z,31.66
2022-08-19T14:58:29.297Z,31.98
2022-08-19T15:01:02.294Z,32.25
2022-08-19T15:03:30.890Z,32.32
2022-08-19T15:06:00.197Z,32.31
2022-08-19T15:08:30.475Z,32.35
2022-08-19T15:10:59.873Z,32.40
2022-08-19T15:13:30.049Z,32.52
2022-08-19T15:15:58.335Z,32.63
2022-08-19T15:18:26.566Z,32.71
2022-08-19T15:20:55.194Z,32.75
2022-08-19T15:23:24.168Z,32.68
2022-08-19T15:25:56.650Z,32.45
2022-08-19T15:28:26.656Z,32.08
2022-08-19T15:30:55.052Z,31.72
2022-08-19T15:33:23.727Z,31.43
2022-08-19T15:35:52.020Z,31.35
2022-08-19T15:38:22.374Z,31.33
2022-08-19T15:40:52.359Z,31.36
2022-08-19T15:43:24.030Z,31.36
2022-08-19T15:45:52.175Z,31.35
2022-08-19T15:48:20.342Z,31.31
2022-08-19T15:50:48.460Z,31.23
2022-08-19T15:53:16.570Z,31.17
2022-08-19T15:55:46.106Z,31.06
2022-08-19T15:58:33.798Z,30.91
2022-08-19T16:01:26.801Z,30.80
2022-08-19T16:04:15.821Z,30.68
2022-08-19T16:06:48.058Z,30.58
2022-08-19T16:09:18.155Z,30.54
2022-08-19T16:11:56.577Z,30.51
2022-08-19T16:14:25.837Z,30.42
2022-08-19T16:16:55.043Z,30.30
2022-08-19T16:19:24.477Z,30.13
2022-08-19T16:21:56.318Z,29.96
2022-08-19T16:24:27.976Z,29.80
2022-08-19T16:26:57.644Z,29.68
2022-08-19T16:29:34.683Z,29.53
2022-08-19T16:32:11.882Z,29.36
2022-08-19T16:34:41.651Z,29.22
2022-08-19T16:37:10.313Z,29.11
2022-08-19T16:39:39.302Z,29.01
2022-08-19T16:42:09.052Z,28.89
2022-08-19T16:44:42.219Z,28.79
2022-08-19T16:47:11.128Z,28.67
2022-08-19T16:49:53.590Z,28.56
2022-08-19T16:52:27.203Z,28.43
2022-08-19T16:54:55.558Z,28.30
2022-08-19T16:57:24.061Z,28.18
2022-08-19T16:59:52.532Z,28.08
2022-08-19T17:02:23.624Z,27.98
2022-08-19T17:04:59.398Z,27.88
2022-08-19T17:07:33.151Z,27.78
2022-08-19T17:10:05.605Z,27.64
2022-08-19T17:12:34.774Z,27.53
2022-08-19T17:15:04.134Z,27.41
2022-08-19T17:17:32.428Z,27.29
2022-08-19T17:20:02.716Z,27.19
2022-08-19T17:22:30.931Z,27.10
2022-08-19T17:24:59.174Z,27.01
2022-08-19T17:27:32.310Z,26.94
2022-08-19T17:30:04.859Z,26.86
2022-08-19T17:32:34.914Z,26.76
2022-08-19T17:35:04.290Z,26.65
2022-08-19T17:37:33.674Z,26.55
2022-08-19T17:40:04.118Z,26.46
2022-08-19T17:42:32.480Z,26.38
2022-08-19T17:45:00.562Z,26.30
2022-08-19T17:47:29.398Z,26.24
2022-08-19T17:49:58.116Z,26.17
2022-08-19T17:52:26.510Z,26.08
2022-08-19T17:54:54.798Z,25.96
2022-08-19T17:57:22.926Z,25.87
2022-08-19T17:59:52.102Z,25.79
2022-08-19T18:02:21.859Z,25.72
2022-08-19T18:04:50.830Z,25.70
2022-08-19T18:07:21.857Z,25.68
2022-08-19T18:09:52.913Z,25.66
2022-08-19T18:12:27.037Z,25.62
2022-08-19T18:14:55.284Z,25.58
2022-08-19T18:17:24.605Z,25.54
2022-08-19T18:19:52.888Z,25.51
2022-08-19T18:22:49.471Z,25.47
2022-08-19T18:25:24.286Z,25.43
2022-08-19T18:27:57.434Z,25.36
2022-08-19T18:30:34.493Z,25.30
2022-08-19T18:33:13.864Z,25.23
2022-08-19T18:35:46.249Z,25.16
2022-08-19T18:38:36.481Z,25.10
2022-08-19T18:41:24.424Z,25.04
2022-08-19T18:44:11.681Z,24.95
2022-08-19T18:46:58.400Z,24.89
2022-08-19T18:49:31.705Z,24.81
2022-08-19T18:52:00.348Z,24.75
2022-08-19T18:54:30.491Z,24.71
2022-08-19T18:56:58.848Z,24.66
2022-08-19T18:59:29.274Z,24.62
2022-08-19T19:01:59.985Z,24.58
2022-08-19T19:04:36.141Z,24.51
2022-08-19T19:07:05.625Z,24.49
2022-08-19T19:09:34.112Z,24.53
2022-08-19T19:12:04.900Z,24.58
2022-08-19T19:14:49.131Z,24.62
2022-08-19T19:17:18.390Z,24.65
2022-08-19T19:19:46.610Z,24.67
2022-08-19T19:22:19.339Z,24.68
2022-08-19T19:24:48.401Z,24.69
2022-08-19T19:27:20.627Z,24.70
2022-08-19T19:29:52.401Z,24.69
2022-08-19T19:32:30.671Z,24.67
2022-08-19T19:34:59.763Z,24.66
2022-08-19T19:37:27.855Z,24.65
2022-08-19T19:39:56.506Z,24.62
2022-08-19T19:42:25.461Z,24.56
2022-08-19T19:44:55.849Z,24.52
2022-08-19T19:47:24.616Z,24.48
2022-08-19T19:50:13.886Z,24.45
2022-08-19T19:52:45.914Z,24.44
2022-08-19T19:55:18.543Z,24.47
2022-08-19T19:57:48.983Z,24.48
2022-08-19T20:00:19.259Z,24.53
2022-08-19T20:02:50.459Z,24.55
2022-08-19T20:05:21.692Z,24.57
2022-08-19T20:08:10.320Z,24.58
2022-08-19T20:10:39.509Z,24.60
2022-08-19T20:13:09.487Z,24.59
2022-08-19T20:15:42.313Z,24.57
2022-08-19T20:18:13.518Z,24.52
2022-08-19T20:20:42.586Z,24.49
2022-08-19T20:23:13.965Z,24.44
2022-08-19T20:25:42.565Z,24.37
2022-08-19T20:28:19.373Z,24.29
2022-08-19T20:30:48.684Z,24.18
2022-08-19T20:33:17.094Z,24.04
2022-08-19T20:35:45.569Z,23.86
2022-08-19T20:38:13.767Z,23.72
2022-08-19T20:40:41.869Z,23.58
2022-08-19T20:43:12.243Z,23.48
2022-08-19T20:45:41.319Z,23.36
2022-08-19T20:48:12.462Z,23.27
2022-08-19T20:50:41.059Z,23.18
2022-08-19T20:53:11.504Z,23.10
2022-08-19T20:55:39.681Z,23.07
2022-08-19T20:58:08.757Z,23.03
2022-08-19T21:00:36.976Z,23.01
2022-08-19T21:03:06.881Z,22.97
2022-08-19T21:05:35.020Z,22.94
2022-08-19T21:08:04.736Z,22.91
2022-08-19T21:10:33.878Z,22.87
2022-08-19T21:13:03.968Z,22.82
2022-08-19T21:15:32.430Z,22.77
2022-08-19T21:18:00.565Z,22.74
2022-08-19T21:20:28.705Z,22.71
2022-08-19T21:22:56.822Z,22.68
2022-08-19T21:25:25.085Z,22.66
2022-08-19T21:27:53.200Z,22.65
2022-08-19T21:30:21.407Z,22.63
2022-08-19T21:32:52.497Z,22.63
2022-08-19T21:35:23.680Z,22.61
2022-08-19T21:37:52.219Z,22.56
2022-08-19T21:40:21.915Z,22.54
2022-08-19T21:42:49.997Z,22.55
2022-08-19T21:45:18.631Z,22.56
2022-08-19T21:47:47.201Z,22.55
2022-08-19T21:50:15.655Z,22.53
2022-08-19T21:52:43.777Z,22.47
2022-08-19T21:55:13.262Z,22.39
2022-08-19T21:57:42.799Z,22.28
2022-08-19T22:00:19.020Z,22.23
2022-08-19T22:02:47.491Z,22.18
2022-08-19T22:05:15.694Z,22.18
2022-08-19T22:07:43.972Z,22.13
2022-08-19T22:10:12.115Z,22.17
2022-08-19T22:12:47.359Z,22.16
2022-08-19T22:15:24.066Z,22.15
2022-08-19T22:17:52.443Z,22.13
2022-08-19T22:20:24.790Z,22.13
2022-08-19T22:22:58.706Z,22.15
2022-08-19T22:25:34.942Z,22.11
2022-08-19T22:28:06.398Z,22.09
2022-08-19T22:30:41.758Z,22.11
2022-08-19T22:33:17.030Z,22.11
2022-08-19T22:35:47.256Z,22.10
2022-08-19T22:38:16.306Z,22.08
2022-08-19T22:40:48.645Z,22.06
2022-08-19T22:43:26.440Z,22.02
2022-08-19T22:45:55.874Z,21.91
2022-08-19T22:48:28.410Z,22.01
2022-08-19T22:51:16.192Z,21.98
2022-08-19T22:53:46.755Z,21.92
2022-08-19T22:56:18.646Z,21.92
2022-08-19T22:58:50.159Z,21.88
2022-08-19T23:01:27.497Z,21.86
2022-08-19T23:04:00.222Z,21.86
2022-08-19T23:06:33.569Z,21.82
2022-08-19T23:09:07.262Z,21.75
2022-08-19T23:11:41.960Z,21.68
2022-08-19T23:14:12.714Z,21.62
2022-08-19T23:16:42.087Z,21.60
2022-08-19T23:19:11.205Z,21.58
2022-08-19T23:21:40.845Z,21.55
2022-08-19T23:24:09.973Z,21.53
2022-08-19T23:26:38.417Z,21.51
2022-08-19T23:29:25.090Z,21.48
2022-08-19T23:31:53.198Z,21.42
2022-08-19T23:34:21.379Z,21.37
2022-08-19T23:36:50.789Z,21.33
2022-08-19T23:39:19.519Z,21.28
2022-08-19T23:41:47.741Z,21.24
2022-08-19T23:44:15.851Z,21.19
2022-08-19T23:46:55.250Z,21.08
2022-08-19T23:49:25.978Z,20.93
2022-08-19T23:51:55.788Z,20.76
2022-08-19T23:54:34.261Z,20.65
2022-08-19T23:57:14.382Z,20.59
2022-08-19T23:59:45.789Z,20.59
